Main page
METAR-TAF:

METAR-TAF

Airports :

Exeter Airport

Exeter, England

latitude: 50-44N, longitude: 003-25W, elevation: 30 m

Current weather observation

The report was made 2 hours and 51 minutes ago, at 16:50 UTC
Wind 7 kt from the West, varying between West and Northwest
Temperature 9°C
Humidity 87%
Pressure 1026 hPa
Visibility 10 km or more
Broken clouds at a height of 1000 ft

METAR: EGTE 291650Z 28007KT 260V320 9999 BKN010 09/07 Q1026

Time: 19:41 (19:41 UTC)

Forecast

The report was made 2 hours and 42 minutes ago, at 16:59 UTC
Forecast valid from 29 at 18 UTC to 29 at 21 UTC
Wind 10 kt from the West
Visibility 10 km or more
Scattered clouds at a height of 3000 ft
Becoming
from 29 at 18 UTC to 29 at 21 UTC
Wind 5 kt from the South/Southwest
Probability 30% :
Temporary
from 29 at 18 UTC to 29 at 21 UTC
Broken clouds at a height of 1400 ft

TAF: EGTE 291659Z 2918/2921 26010KT 9999 SCT030 BECMG 2918/2921 20005KT PROB30 TEMPO 2918/2921 BKN014

Weather observations and forecasts of more than 4000 airports (METAR and TAF reports).

The available stations are represented by yellow and red dots on the map.

Hover mouse over dot to see the name of the station.

Then click to see weather observations and forecasts.

To change the map : click on the green buttons with a black cross to zoom in, on the green button with a dash to zoom out, or on the green arrows for adjacent maps.


METAR-TAF: